aviador You're here:

LEAS Decoded Metar

ASTURIAS in SPAIN
Report Time2017-08-18 23:30:00
UTC Time2017-08-18 23:53:01
Flight Rules vfr VFR
Wind050° at 04 kt
W.Decomp.*RWY 11: 2.2 kt HW 3.4 kt LCW
W.Rank050° ranks 18
Current wind is below 050° avg. (5.0)
Visibility9999 m
Phenomena:N/A
Clouds:Few 015 Hf
Scattered 030 Hf
Expected CloudBase > 800 ft AGL from Temp-Dew spread
CeilingNone
Temp19°C (ISA +5)
Dew Point17°C (88% RH)
QNH1024 hPa
Density Alt899 ft
Elevation440 ft
Report Wrong Elevation
Raw Report
LEAS 182330Z 05004KT 350V100 9999 FEW015 SCT030 19/17 Q1024
NOSIG=

Extra information for LEAS:More info

Metar Taf Metar & Taf Last 4 Metars F.Rules Stats Wind Profile Meteogram Temp Stats Airport Information Weather charts Add Link Nearby VenuesMetar ALERT Operation Metar Decoded Social comments